Time,TemperatureF,DewpointF,PressureIn,WindDirection,WindDirectionDegrees,WindSpeedMPH,WindSpeedGustMPH,Humidity,HourlyPrecipIn,Conditions,Clouds,dailyrainin,SoftwareType,DateUTC
2013-02-18 00:00:00,41.5,32.8,30.08,NNW,338,1.0,-999.0,71,0.00,,,0.00,Wunderground v.1.15,2013-02-18 08:00:00,
2013-02-18 00:05:00,41.5,32.8,30.08,NNW,338,1.0,-999.0,71,0.00,,,0.00,Wunderground v.1.15,2013-02-18 08:05:00,
2013-02-18 00:10:00,41.5,32.8,30.08,NNW,338,1.0,-999.0,71,0.00,,,0.00,Wunderground v.1.15,2013-02-18 08:10:00,
2013-02-18 00:15:00,41.5,32.8,30.08,NNW,338,1.0,-999.0,71,0.00,,,0.00,Wunderground v.1.15,2013-02-18 08:15:00,
2013-02-18 00:20:00,41.5,32.8,30.08,NNW,338,1.0,-999.0,71,0.00,,,0.00,Wunderground v.1.15,2013-02-18 08:20:00,
2013-02-18 00:25:00,41.0,32.3,30.08,NNW,338,1.0,-999.0,71,0.00,,,0.00,Wunderground v.1.15,2013-02-18 08:25:00,
2013-02-18 00:30:00,41.0,32.3,30.08,NNW,338,1.0,-999.0,71,0.00,,,0.00,Wunderground v.1.15,2013-02-18 08:30:00,
2013-02-18 00:35:00,41.4,32.3,30.08,NNW,338,1.0,-999.0,70,0.00,,,0.00,Wunderground v.1.15,2013-02-18 08:35:00,
2013-02-18 00:40:00,41.4,32.3,30.08,NNW,338,1.0,-999.0,70,0.00,,,0.00,Wunderground v.1.15,2013-02-18 08:40:00,
2013-02-18 00:45:00,41.0,32.0,30.08,NNW,338,1.0,-999.0,70,0.00,,,0.00,Wunderground v.1.15,2013-02-18 08:45:00,
2013-02-18 00:50:00,41.0,32.0,30.08,NNW,338,1.0,-999.0,70,0.00,,,0.00,Wunderground v.1.15,2013-02-18 08:50:00,
2013-02-18 00:55:00,41.6,31.8,30.08,NNW,338,1.0,-999.0,68,0.00,,,0.00,Wunderground v.1.15,2013-02-18 08:55:00,
2013-02-18 01:00:00,41.6,31.8,30.08,NNW,338,1.0,-999.0,68,0.00,,,0.00,Wunderground v.1.15,2013-02-18 09:00:00,
2013-02-18 01:05:00,41.6,32.2,30.09,NNW,338,1.0,-999.0,69,0.00,,,0.00,Wunderground v.1.15,2013-02-18 09:05:00,
2013-02-18 01:10:00,41.6,32.2,30.09,NNW,338,1.0,-999.0,69,0.00,,,0.00,Wunderground v.1.15,2013-02-18 09:10:00,
2013-02-18 01:15:00,41.9,31.4,30.09,NNW,338,1.0,-999.0,66,0.00,,,0.00,Wunderground v.1.15,2013-02-18 09:15:00,
2013-02-18 01:20:00,41.9,31.4,30.09,NNW,338,1.0,-999.0,66,0.00,,,0.00,Wunderground v.1.15,2013-02-18 09:20:00,
2013-02-18 01:25:00,43.0,31.6,30.09,N/A,-737280,0.0,-999.0,64,0.00,,,0.00,Wunderground v.1.15,2013-02-18 09:25:00,
2013-02-18 01:30:00,43.0,31.6,30.09,N/A,-737280,0.0,-999.0,64,0.00,,,0.00,Wunderground v.1.15,2013-02-18 09:30:00,
2013-02-18 01:35:00,43.0,32.8,30.09,NNW,338,0.0,-999.0,67,0.00,,,0.00,Wunderground v.1.15,2013-02-18 09:35:00,
2013-02-18 01:40:00,43.0,32.8,30.09,NNW,338,0.0,-999.0,67,0.00,,,0.00,Wunderground v.1.15,2013-02-18 09:40:00,
2013-02-18 01:45:00,41.5,31.7,30.09,NNW,338,0.0,-999.0,68,0.00,,,0.00,Wunderground v.1.15,2013-02-18 09:45:00,
2013-02-18 01:50:00,41.5,31.7,30.09,NNW,338,0.0,-999.0,68,0.00,,,0.00,Wunderground v.1.15,2013-02-18 09:50:00,
2013-02-18 01:55:00,41.7,31.5,30.09,NNW,338,0.0,-999.0,67,0.00,,,0.00,Wunderground v.1.15,2013-02-18 09:55:00,
2013-02-18 02:00:00,41.7,31.5,30.09,NNW,338,0.0,-999.0,67,0.00,,,0.00,Wunderground v.1.15,2013-02-18 10:00:00,
2013-02-18 02:05:00,41.6,32.2,30.09,NNW,338,1.0,-999.0,69,0.00,,,0.00,Wunderground v.1.15,2013-02-18 10:05:00,
2013-02-18 02:10:00,41.6,32.2,30.09,NNW,338,1.0,-999.0,69,0.00,,,0.00,Wunderground v.1.15,2013-02-18 10:10:00,
2013-02-18 02:15:00,41.0,32.0,30.09,NNW,338,1.0,-999.0,70,0.00,,,0.00,Wunderground v.1.15,2013-02-18 10:15:00,
2013-02-18 02:20:00,41.0,32.0,30.09,NNW,338,1.0,-999.0,70,0.00,,,0.00,Wunderground v.1.15,2013-02-18 10:20:00,
2013-02-18 02:25:00,41.3,31.2,30.09,NNW,338,0.0,-999.0,67,0.00,,,0.00,Wunderground v.1.15,2013-02-18 10:25:00,
2013-02-18 02:30:00,41.3,31.2,30.09,NNW,338,0.0,-999.0,67,0.00,,,0.00,Wunderground v.1.15,2013-02-18 10:30:00,
2013-02-18 02:35:00,41.6,32.2,30.09,NNW,338,1.0,-999.0,69,0.00,,,0.00,Wunderground v.1.15,2013-02-18 10:35:00,
2013-02-18 02:40:00,41.6,32.2,30.09,NNW,338,1.0,-999.0,69,0.00,,,0.00,Wunderground v.1.15,2013-02-18 10:40:00,
2013-02-18 02:45:00,40.4,31.7,30.09,NNW,338,1.0,-999.0,71,0.00,,,0.00,Wunderground v.1.15,2013-02-18 10:45:00,
2013-02-18 02:50:00,40.4,31.7,30.09,NNW,338,1.0,-999.0,71,0.00,,,0.00,Wunderground v.1.15,2013-02-18 10:50:00,
2013-02-18 02:55:00,40.3,30.9,30.09,NNW,338,0.0,-999.0,69,0.00,,,0.00,Wunderground v.1.15,2013-02-18 10:55:00,
2013-02-18 03:00:00,40.3,30.9,30.09,NNW,338,0.0,-999.0,69,0.00,,,0.00,Wunderground v.1.15,2013-02-18 11:00:00,
2013-02-18 03:05:00,41.2,31.1,30.08,NNW,338,0.0,-999.0,67,0.00,,,0.00,Wunderground v.1.15,2013-02-18 11:05:00,
2013-02-18 03:10:00,41.2,31.1,30.08,NNW,338,0.0,-999.0,67,0.00,,,0.00,Wunderground v.1.15,2013-02-18 11:10:00,
2013-02-18 03:15:00,41.8,30.9,30.08,NE,45,1.0,-999.0,65,0.00,,,0.00,Wunderground v.1.15,2013-02-18 11:15:00,
2013-02-18 03:20:00,41.8,30.9,30.08,NE,45,1.0,-999.0,65,0.00,,,0.00,Wunderground v.1.15,2013-02-18 11:20:00,
2013-02-18 03:25:00,42.5,30.8,30.08,ESE,113,1.0,-999.0,63,0.00,,,0.00,Wunderground v.1.15,2013-02-18 11:25:00,
2013-02-18 03:30:00,42.5,30.8,30.08,ESE,113,1.0,-999.0,63,0.00,,,0.00,Wunderground v.1.15,2013-02-18 11:30:00,
2013-02-18 03:35:00,43.0,31.3,30.08,East,90,0.0,-999.0,63,0.00,,,0.00,Wunderground v.1.15,2013-02-18 11:35:00,
2013-02-18 03:40:00,43.0,31.3,30.08,East,90,0.0,-999.0,63,0.00,,,0.00,Wunderground v.1.15,2013-02-18 11:40:00,
2013-02-18 03:45:00,42.8,31.1,30.07,East,90,1.0,-999.0,63,0.00,,,0.00,Wunderground v.1.15,2013-02-18 11:45:00,
2013-02-18 03:50:00,42.8,31.1,30.07,East,90,1.0,-999.0,63,0.00,,,0.00,Wunderground v.1.15,2013-02-18 11:50:00,
2013-02-18 03:55:00,42.6,31.7,30.07,North,0,1.0,-999.0,65,0.00,,,0.00,Wunderground v.1.15,2013-02-18 11:55:00,
2013-02-18 04:00:00,42.6,31.7,30.07,North,0,1.0,-999.0,65,0.00,,,0.00,Wunderground v.1.15,2013-02-18 12:00:00,
2013-02-18 04:05:00,41.9,31.0,30.07,North,0,1.0,-999.0,65,0.00,,,0.00,Wunderground v.1.15,2013-02-18 12:05:00,
2013-02-18 04:10:00,41.9,31.0,30.07,North,0,1.0,-999.0,65,0.00,,,0.00,Wunderground v.1.15,2013-02-18 12:10:00,
2013-02-18 04:15:00,42.1,31.2,30.07,NNE,23,1.0,-999.0,65,0.00,,,0.00,Wunderground v.1.15,2013-02-18 12:15:00,
2013-02-18 04:20:00,42.1,31.2,30.07,NNE,23,1.0,-999.0,65,0.00,,,0.00,Wunderground v.1.15,2013-02-18 12:20:00,
2013-02-18 04:25:00,42.2,31.3,30.07,NE,45,0.0,-999.0,65,0.00,,,0.00,Wunderground v.1.15,2013-02-18 12:25:00,
2013-02-18 04:30:00,42.2,31.3,30.07,NE,45,0.0,-999.0,65,0.00,,,0.00,Wunderground v.1.15,2013-02-18 12:30:00,
2013-02-18 04:35:00,42.1,31.2,30.07,East,90,1.0,-999.0,65,0.00,,,0.00,Wunderground v.1.15,2013-02-18 12:35:00,
2013-02-18 04:40:00,42.1,31.2,30.07,East,90,1.0,-999.0,65,0.00,,,0.00,Wunderground v.1.15,2013-02-18 12:40:00,
2013-02-18 04:45:00,42.3,31.4,30.07,SE,135,1.0,-999.0,65,0.00,,,0.00,Wunderground v.1.15,2013-02-18 12:45:00,
2013-02-18 04:50:00,42.3,31.4,30.07,SE,135,1.0,-999.0,65,0.00,,,0.00,Wunderground v.1.15,2013-02-18 12:50:00,
2013-02-18 04:55:00,41.8,31.3,30.07,ENE,68,0.0,-999.0,66,0.00,,,0.00,Wunderground v.1.15,2013-02-18 12:55:00,
2013-02-18 05:00:00,41.8,31.3,30.07,ENE,68,0.0,-999.0,66,0.00,,,0.00,Wunderground v.1.15,2013-02-18 13:00:00,
2013-02-18 05:05:00,42.0,30.7,30.07,East,90,1.0,-999.0,64,0.00,,,0.00,Wunderground v.1.15,2013-02-18 13:05:00,
2013-02-18 05:10:00,42.0,30.7,30.07,East,90,1.0,-999.0,64,0.00,,,0.00,Wunderground v.1.15,2013-02-18 13:10:00,
2013-02-18 05:15:00,42.8,31.1,30.07,East,90,0.0,-999.0,63,0.00,,,0.00,Wunderground v.1.15,2013-02-18 13:15:00,
2013-02-18 05:20:00,42.8,31.1,30.07,East,90,0.0,-999.0,63,0.00,,,0.00,Wunderground v.1.15,2013-02-18 13:20:00,
2013-02-18 05:25:00,43.1,30.6,30.07,East,90,1.0,-999.0,61,0.00,,,0.00,Wunderground v.1.15,2013-02-18 13:25:00,
2013-02-18 05:30:00,43.1,30.6,30.07,East,90,1.0,-999.0,61,0.00,,,0.00,Wunderground v.1.15,2013-02-18 13:30:00,
2013-02-18 05:35:00,43.5,30.9,30.07,ENE,68,1.0,-999.0,61,0.00,,,0.00,Wunderground v.1.15,2013-02-18 13:35:00,
2013-02-18 05:40:00,43.5,30.9,30.07,ENE,68,1.0,-999.0,61,0.00,,,0.00,Wunderground v.1.15,2013-02-18 13:40:00,
2013-02-18 05:45:00,43.4,30.8,30.07,ENE,68,0.0,-999.0,61,0.00,,,0.00,Wunderground v.1.15,2013-02-18 13:45:00,
2013-02-18 05:50:00,43.4,30.8,30.07,ENE,68,0.0,-999.0,61,0.00,,,0.00,Wunderground v.1.15,2013-02-18 13:50:00,
2013-02-18 05:55:00,43.5,31.7,30.07,ENE,68,0.0,-999.0,63,0.00,,,0.00,Wunderground v.1.15,2013-02-18 13:55:00,
2013-02-18 06:00:00,43.5,31.7,30.07,ENE,68,0.0,-999.0,63,0.00,,,0.00,Wunderground v.1.15,2013-02-18 14:00:00,
2013-02-18 06:05:00,42.1,31.6,30.06,North,0,1.0,-999.0,66,0.00,,,0.00,Wunderground v.1.15,2013-02-18 14:05:00,
2013-02-18 06:10:00,42.1,31.6,30.06,North,0,1.0,-999.0,66,0.00,,,0.00,Wunderground v.1.15,2013-02-18 14:10:00,
2013-02-18 06:15:00,41.3,30.8,30.06,North,0,1.0,-999.0,66,0.00,,,0.00,Wunderground v.1.15,2013-02-18 14:15:00,
2013-02-18 06:20:00,41.3,30.8,30.06,North,0,1.0,-999.0,66,0.00,,,0.00,Wunderground v.1.15,2013-02-18 14:20:00,
2013-02-18 06:25:00,40.8,31.1,30.07,NNW,338,2.0,-999.0,68,0.00,,,0.00,Wunderground v.1.15,2013-02-18 14:25:00,
2013-02-18 06:30:00,40.8,31.1,30.07,NNW,338,2.0,-999.0,68,0.00,,,0.00,Wunderground v.1.15,2013-02-18 14:30:00,
2013-02-18 06:35:00,39.7,30.7,30.07,WNW,293,2.0,-999.0,70,0.00,,,0.00,Wunderground v.1.15,2013-02-18 14:35:00,
2013-02-18 06:40:00,39.7,30.7,30.07,WNW,293,2.0,-999.0,70,0.00,,,0.00,Wunderground v.1.15,2013-02-18 14:40:00,
2013-02-18 06:45:00,39.9,30.5,30.07,NNW,338,1.0,-999.0,69,0.00,,,0.00,Wunderground v.1.15,2013-02-18 14:45:00,
2013-02-18 06:50:00,39.9,30.5,30.07,NNW,338,1.0,-999.0,69,0.00,,,0.00,Wunderground v.1.15,2013-02-18 14:50:00,
2013-02-18 06:55:00,40.6,30.5,30.07,NNW,338,1.0,-999.0,67,0.00,,,0.00,Wunderground v.1.15,2013-02-18 14:55:00,
2013-02-18 07:00:00,40.6,30.5,30.07,NNW,338,1.0,-999.0,67,0.00,,,0.00,Wunderground v.1.15,2013-02-18 15:00:00,
2013-02-18 07:05:00,41.1,30.6,30.07,North,0,1.0,-999.0,66,0.00,,,0.00,Wunderground v.1.15,2013-02-18 15:05:00,
2013-02-18 07:10:00,41.1,30.6,30.07,North,0,1.0,-999.0,66,0.00,,,0.00,Wunderground v.1.15,2013-02-18 15:10:00,
2013-02-18 07:20:00,42.5,31.2,30.07,North,355,0.0,0.0,64,0.00,,,0.00,Wunderground v.1.15,2013-02-18 15:20:00,
2013-02-18 07:30:00,43.2,31.4,30.07,ENE,76,1.0,1.0,63,0.00,,,0.00,Wunderground v.1.15,2013-02-18 15:30:00,
2013-02-18 07:40:00,43.6,32.2,30.07,ESE,113,0.0,0.0,64,0.00,,,0.00,Wunderground v.1.15,2013-02-18 15:40:00,
2013-02-18 07:50:00,43.0,32.0,30.07,SE,124,1.0,3.0,65,0.00,,,0.00,Wunderground v.1.15,2013-02-18 15:50:00,
2013-02-18 08:00:00,43.5,32.5,30.08,ESE,113,0.0,-999.0,65,0.00,,,0.00,Wunderground v.1.15,2013-02-18 16:00:00,
2013-02-18 08:01:00,43.5,32.1,30.08,ESE,114,0.0,0.0,64,0.00,,,0.00,Wunderground v.1.15,2013-02-18 16:01:00,
2013-02-18 08:05:00,43.3,32.3,30.08,SSE,158,0.0,-999.0,65,0.00,,,0.00,Wunderground v.1.15,2013-02-18 16:05:00,
2013-02-18 08:10:00,43.4,32.4,30.08,SSE,167,0.0,0.0,65,0.00,,,0.00,Wunderground v.1.15,2013-02-18 16:10:00,
2013-02-18 08:15:00,43.9,32.5,30.08,SSE,158,1.0,-999.0,64,0.00,,,0.00,Wunderground v.1.15,2013-02-18 16:15:00,
2013-02-18 08:20:00,44.3,33.3,30.08,SSE,161,0.0,1.0,65,0.00,,,0.00,Wunderground v.1.15,2013-02-18 16:20:00,
2013-02-18 08:25:00,45.8,33.9,30.08,SE,138,1.0,1.0,63,0.00,,,0.00,Wunderground v.1.15,2013-02-18 16:25:00,
2013-02-18 08:30:00,45.9,33.2,30.08,SE,135,1.0,-999.0,61,0.00,,,0.00,Wunderground v.1.15,2013-02-18 16:30:00,
2013-02-18 08:35:00,46.7,34.0,30.08,SE,134,1.0,3.0,61,0.00,,,0.00,Wunderground v.1.15,2013-02-18 16:35:00,
2013-02-18 08:40:00,46.6,34.3,30.08,ESE,102,1.0,1.0,62,0.00,,,0.00,Wunderground v.1.15,2013-02-18 16:40:00,
2013-02-18 08:45:00,46.8,34.5,30.08,East,96,1.0,3.0,62,0.00,,,0.00,Wunderground v.1.15,2013-02-18 16:45:00,
2013-02-18 08:50:00,47.0,33.8,30.08,SE,135,1.0,-999.0,60,0.00,,,0.00,Wunderground v.1.15,2013-02-18 16:50:00,
2013-02-18 08:55:00,48.0,34.8,30.08,SE,135,2.0,-999.0,60,0.00,,,0.00,Wunderground v.1.15,2013-02-18 16:55:00,
2013-02-18 09:00:00,48.0,34.8,30.08,SE,135,2.0,-999.0,60,0.00,,,0.00,Wunderground v.1.15,2013-02-18 17:00:00,
2013-02-18 09:05:00,49.0,34.9,30.08,ESE,113,3.0,-999.0,58,0.00,,,0.00,Wunderground v.1.15,2013-02-18 17:05:00,
2013-02-18 09:10:00,49.0,34.9,30.08,ESE,113,3.0,-999.0,58,0.00,,,0.00,Wunderground v.1.15,2013-02-18 17:10:00,
2013-02-18 09:15:00,49.8,35.2,30.08,ESE,113,3.0,-999.0,57,0.00,,,0.00,Wunderground v.1.15,2013-02-18 17:15:00,
2013-02-18 09:20:00,49.8,35.2,30.08,ESE,113,3.0,-999.0,57,0.00,,,0.00,Wunderground v.1.15,2013-02-18 17:20:00,
2013-02-18 09:25:00,50.6,35.9,30.08,ESE,113,2.0,-999.0,57,0.00,,,0.00,Wunderground v.1.15,2013-02-18 17:25:00,
2013-02-18 09:30:00,50.6,35.9,30.08,ESE,113,2.0,-999.0,57,0.00,,,0.00,Wunderground v.1.15,2013-02-18 17:30:00,
2013-02-18 09:35:00,51.4,36.2,30.08,SE,135,3.0,-999.0,56,0.00,,,0.00,Wunderground v.1.15,2013-02-18 17:35:00,
2013-02-18 09:40:00,51.4,36.2,30.08,SE,135,3.0,-999.0,56,0.00,,,0.00,Wunderground v.1.15,2013-02-18 17:40:00,
2013-02-18 09:45:00,51.9,37.6,30.07,SE,135,2.0,-999.0,58,0.00,,,0.00,Wunderground v.1.15,2013-02-18 17:45:00,
2013-02-18 09:50:00,51.9,37.6,30.07,SE,135,2.0,-999.0,58,0.00,,,0.00,Wunderground v.1.15,2013-02-18 17:50:00,
2013-02-18 09:55:00,52.1,38.6,30.07,SE,135,2.0,-999.0,60,0.00,,,0.00,Wunderground v.1.15,2013-02-18 17:55:00,
2013-02-18 10:00:00,52.1,38.6,30.07,SE,135,2.0,-999.0,60,0.00,,,0.00,Wunderground v.1.15,2013-02-18 18:00:00,
2013-02-18 10:05:00,51.8,38.8,30.07,SE,135,2.0,-999.0,61,0.00,,,0.00,Wunderground v.1.15,2013-02-18 18:05:00,
2013-02-18 10:10:00,51.8,38.8,30.07,SE,135,2.0,-999.0,61,0.00,,,0.00,Wunderground v.1.15,2013-02-18 18:10:00,
2013-02-18 10:15:00,52.3,38.4,30.07,SSE,158,3.0,-999.0,59,0.00,,,0.00,Wunderground v.1.15,2013-02-18 18:15:00,
2013-02-18 10:20:00,52.3,38.4,30.07,SSE,158,3.0,-999.0,59,0.00,,,0.00,Wunderground v.1.15,2013-02-18 18:20:00,
2013-02-18 10:25:00,51.7,37.4,30.07,ESE,113,2.0,-999.0,58,0.00,,,0.00,Wunderground v.1.15,2013-02-18 18:25:00,
2013-02-18 10:30:00,51.7,37.4,30.07,ESE,113,2.0,-999.0,58,0.00,,,0.00,Wunderground v.1.15,2013-02-18 18:30:00,
2013-02-18 10:35:00,52.9,38.5,30.07,SE,135,3.0,-999.0,58,0.00,,,0.00,Wunderground v.1.15,2013-02-18 18:35:00,
2013-02-18 10:40:00,52.9,38.5,30.07,SE,135,3.0,-999.0,58,0.00,,,0.00,Wunderground v.1.15,2013-02-18 18:40:00,
2013-02-18 10:45:00,53.5,38.6,30.07,SE,135,4.0,-999.0,57,0.00,,,0.00,Wunderground v.1.15,2013-02-18 18:45:00,
2013-02-18 10:50:00,53.5,38.6,30.07,SE,135,4.0,-999.0,57,0.00,,,0.00,Wunderground v.1.15,2013-02-18 18:50:00,
2013-02-18 10:55:00,53.1,39.1,30.07,SE,135,3.0,-999.0,59,0.00,,,0.00,Wunderground v.1.15,2013-02-18 18:55:00,
2013-02-18 11:00:00,53.1,39.1,30.07,SE,135,3.0,-999.0,59,0.00,,,0.00,Wunderground v.1.15,2013-02-18 19:00:00,
2013-02-18 11:05:00,54.1,39.2,30.07,SE,135,3.0,-999.0,57,0.00,,,0.00,Wunderground v.1.15,2013-02-18 19:05:00,
2013-02-18 11:10:00,54.1,39.2,30.07,SE,135,3.0,-999.0,57,0.00,,,0.00,Wunderground v.1.15,2013-02-18 19:10:00,
2013-02-18 11:15:00,54.4,39.9,30.07,SSE,158,3.0,-999.0,58,0.00,,,0.00,Wunderground v.1.15,2013-02-18 19:15:00,
2013-02-18 11:20:00,54.4,39.9,30.07,SSE,158,3.0,-999.0,58,0.00,,,0.00,Wunderground v.1.15,2013-02-18 19:20:00,
2013-02-18 11:25:00,55.0,39.6,30.07,SSE,158,3.0,-999.0,56,0.00,,,0.00,Wunderground v.1.15,2013-02-18 19:25:00,
2013-02-18 11:30:00,55.0,39.6,30.07,SSE,158,3.0,-999.0,56,0.00,,,0.00,Wunderground v.1.15,2013-02-18 19:30:00,
2013-02-18 11:35:00,55.4,40.0,30.06,SE,135,4.0,-999.0,56,0.00,,,0.00,Wunderground v.1.15,2013-02-18 19:35:00,
2013-02-18 11:40:00,55.4,40.0,30.06,SE,135,4.0,-999.0,56,0.00,,,0.00,Wunderground v.1.15,2013-02-18 19:40:00,
2013-02-18 11:45:00,55.1,38.3,30.06,SSE,158,3.0,-999.0,53,0.00,,,0.00,Wunderground v.1.15,2013-02-18 19:45:00,
2013-02-18 11:50:00,55.1,38.3,30.06,SSE,158,3.0,-999.0,53,0.00,,,0.00,Wunderground v.1.15,2013-02-18 19:50:00,
2013-02-18 11:55:00,54.8,38.9,30.05,SE,135,3.0,-999.0,55,0.00,,,0.00,Wunderground v.1.15,2013-02-18 19:55:00,
2013-02-18 12:00:00,54.8,38.9,30.05,SE,135,3.0,-999.0,55,0.00,,,0.00,Wunderground v.1.15,2013-02-18 20:00:00,
2013-02-18 12:05:00,54.9,38.1,30.05,SE,135,3.0,-999.0,53,0.00,,,0.00,Wunderground v.1.15,2013-02-18 20:05:00,
2013-02-18 12:10:00,54.9,38.1,30.05,SE,135,3.0,-999.0,53,0.00,,,0.00,Wunderground v.1.15,2013-02-18 20:10:00,
2013-02-18 12:15:00,55.6,38.2,30.04,SE,135,2.0,-999.0,52,0.00,,,0.00,Wunderground v.1.15,2013-02-18 20:15:00,
2013-02-18 12:20:00,55.6,38.2,30.04,SE,135,2.0,-999.0,52,0.00,,,0.00,Wunderground v.1.15,2013-02-18 20:20:00,
2013-02-18 12:25:00,55.8,39.4,30.04,SE,135,2.0,-999.0,54,0.00,,,0.00,Wunderground v.1.15,2013-02-18 20:25:00,
2013-02-18 12:30:00,55.8,39.4,30.04,SE,135,2.0,-999.0,54,0.00,,,0.00,Wunderground v.1.15,2013-02-18 20:30:00,
2013-02-18 12:35:00,54.7,37.4,30.03,SE,135,2.0,-999.0,52,0.00,,,0.00,Wunderground v.1.15,2013-02-18 20:35:00,
2013-02-18 12:40:00,54.7,37.4,30.03,SE,135,2.0,-999.0,52,0.00,,,0.00,Wunderground v.1.15,2013-02-18 20:40:00,
2013-02-18 12:45:00,54.3,37.0,30.03,SE,135,2.0,-999.0,52,0.00,,,0.00,Wunderground v.1.15,2013-02-18 20:45:00,
2013-02-18 12:50:00,54.3,37.0,30.03,SE,135,2.0,-999.0,52,0.00,,,0.00,Wunderground v.1.15,2013-02-18 20:50:00,
2013-02-18 12:55:00,54.6,35.8,30.03,South,180,2.0,-999.0,49,0.00,,,0.00,Wunderground v.1.15,2013-02-18 20:55:00,
2013-02-18 13:00:00,54.6,35.8,30.03,South,180,2.0,-999.0,49,0.00,,,0.00,Wunderground v.1.15,2013-02-18 21:00:00,
2013-02-18 13:05:00,54.5,35.7,30.03,SE,135,2.0,-999.0,49,0.00,,,0.00,Wunderground v.1.15,2013-02-18 21:05:00,
2013-02-18 13:10:00,54.5,35.7,30.03,SE,135,2.0,-999.0,49,0.00,,,0.00,Wunderground v.1.15,2013-02-18 21:10:00,
2013-02-18 13:15:00,54.7,35.9,30.02,South,180,3.0,-999.0,49,0.00,,,0.00,Wunderground v.1.15,2013-02-18 21:15:00,
2013-02-18 13:20:00,54.7,35.9,30.02,South,180,3.0,-999.0,49,0.00,,,0.00,Wunderground v.1.15,2013-02-18 21:20:00,
2013-02-18 13:25:00,55.1,36.8,30.02,SSE,158,3.0,-999.0,50,0.00,,,0.00,Wunderground v.1.15,2013-02-18 21:25:00,
2013-02-18 13:30:00,55.1,36.8,30.02,SSE,158,3.0,-999.0,50,0.00,,,0.00,Wunderground v.1.15,2013-02-18 21:30:00,
2013-02-18 13:35:00,55.0,37.2,30.01,SSE,158,3.0,-999.0,51,0.00,,,0.00,Wunderground v.1.15,2013-02-18 21:35:00,
2013-02-18 13:40:00,55.0,37.2,30.01,SSE,158,3.0,-999.0,51,0.00,,,0.00,Wunderground v.1.15,2013-02-18 21:40:00,
2013-02-18 13:45:00,54.1,37.3,30.01,South,180,2.0,-999.0,53,0.00,,,0.00,Wunderground v.1.15,2013-02-18 21:45:00,
2013-02-18 13:50:00,54.1,37.3,30.01,South,180,2.0,-999.0,53,0.00,,,0.00,Wunderground v.1.15,2013-02-18 21:50:00,
2013-02-18 13:55:00,54.2,36.9,30.01,SSE,158,3.0,-999.0,52,0.00,,,0.00,Wunderground v.1.15,2013-02-18 21:55:00,
2013-02-18 14:00:00,54.2,36.9,30.01,SSE,158,3.0,-999.0,52,0.00,,,0.00,Wunderground v.1.15,2013-02-18 22:00:00,
2013-02-18 14:05:00,53.8,37.1,30.00,SSE,158,2.0,-999.0,53,0.00,,,0.00,Wunderground v.1.15,2013-02-18 22:05:00,
2013-02-18 14:10:00,53.8,37.1,30.00,SSE,158,2.0,-999.0,53,0.00,,,0.00,Wunderground v.1.15,2013-02-18 22:10:00,
2013-02-18 14:15:00,53.6,37.8,30.00,South,180,3.0,-999.0,55,0.00,,,0.00,Wunderground v.1.15,2013-02-18 22:15:00,
2013-02-18 14:20:00,53.6,37.8,30.00,South,180,3.0,-999.0,55,0.00,,,0.00,Wunderground v.1.15,2013-02-18 22:20:00,
2013-02-18 14:25:00,53.6,38.3,30.00,South,180,3.0,-999.0,56,0.00,,,0.00,Wunderground v.1.15,2013-02-18 22:25:00,
2013-02-18 14:30:00,53.6,38.3,30.00,South,180,3.0,-999.0,56,0.00,,,0.00,Wunderground v.1.15,2013-02-18 22:30:00,
2013-02-18 14:35:00,53.6,38.7,29.99,SE,135,3.0,-999.0,57,0.00,,,0.00,Wunderground v.1.15,2013-02-18 22:35:00,
2013-02-18 14:40:00,53.6,38.7,29.99,SE,135,3.0,-999.0,57,0.00,,,0.00,Wunderground v.1.15,2013-02-18 22:40:00,
2013-02-18 14:45:00,53.3,38.4,29.99,SSE,158,2.0,-999.0,57,0.00,,,0.00,Wunderground v.1.15,2013-02-18 22:45:00,
2013-02-18 14:50:00,53.3,38.4,29.99,SSE,158,2.0,-999.0,57,0.00,,,0.00,Wunderground v.1.15,2013-02-18 22:50:00,
2013-02-18 14:55:00,52.8,38.4,29.99,SSE,158,2.0,-999.0,58,0.00,,,0.00,Wunderground v.1.15,2013-02-18 22:55:00,
2013-02-18 15:00:00,52.8,38.4,29.99,SSE,158,2.0,-999.0,58,0.00,,,0.00,Wunderground v.1.15,2013-02-18 23:00:00,
2013-02-18 15:05:00,52.6,38.2,29.99,SSE,158,2.0,-999.0,58,0.00,,,0.00,Wunderground v.1.15,2013-02-18 23:05:00,
2013-02-18 15:10:00,52.6,38.2,29.99,SSE,158,2.0,-999.0,58,0.00,,,0.00,Wunderground v.1.15,2013-02-18 23:10:00,
2013-02-18 15:15:00,52.3,38.8,29.99,South,180,3.0,-999.0,60,0.00,,,0.00,Wunderground v.1.15,2013-02-18 23:15:00,
2013-02-18 15:20:00,52.3,38.8,29.99,South,180,3.0,-999.0,60,0.00,,,0.00,Wunderground v.1.15,2013-02-18 23:20:00,
2013-02-18 15:25:00,51.6,38.6,29.98,SSE,158,3.0,-999.0,61,0.00,,,0.00,Wunderground v.1.15,2013-02-18 23:25:00,
2013-02-18 15:30:00,51.6,38.6,29.98,SSE,158,3.0,-999.0,61,0.00,,,0.00,Wunderground v.1.15,2013-02-18 23:30:00,
2013-02-18 15:35:00,50.8,38.7,29.97,SSE,158,3.0,-999.0,63,0.00,,,0.00,Wunderground v.1.15,2013-02-18 23:35:00,
2013-02-18 15:40:00,50.8,38.7,29.97,SSE,158,3.0,-999.0,63,0.00,,,0.00,Wunderground v.1.15,2013-02-18 23:40:00,
2013-02-18 15:45:00,50.6,38.9,29.97,SSE,158,2.0,-999.0,64,0.00,,,0.00,Wunderground v.1.15,2013-02-18 23:45:00,
2013-02-18 15:50:00,50.6,38.9,29.97,SSE,158,2.0,-999.0,64,0.00,,,0.00,Wunderground v.1.15,2013-02-18 23:50:00,
2013-02-18 15:55:00,50.6,39.3,29.97,SSE,158,2.0,-999.0,65,0.00,,,0.00,Wunderground v.1.15,2013-02-18 23:55:00,
2013-02-18 16:00:00,50.6,39.3,29.97,SSE,158,2.0,-999.0,65,0.00,,,0.00,Wunderground v.1.15,2013-02-19 00:00:00,
2013-02-18 16:05:00,50.2,39.3,29.97,SE,135,2.0,-999.0,66,0.00,,,0.00,Wunderground v.1.15,2013-02-19 00:05:00,
2013-02-18 16:10:00,50.2,39.3,29.97,SE,135,2.0,-999.0,66,0.00,,,0.00,Wunderground v.1.15,2013-02-19 00:10:00,
2013-02-18 16:15:00,49.8,39.7,29.97,SE,135,1.0,-999.0,68,0.00,,,0.00,Wunderground v.1.15,2013-02-19 00:15:00,
2013-02-18 16:20:00,49.8,39.7,29.97,SE,135,1.0,-999.0,68,0.00,,,0.00,Wunderground v.1.15,2013-02-19 00:20:00,
2013-02-18 16:25:00,49.5,39.7,29.97,SSE,158,1.0,-999.0,69,0.00,,,0.00,Wunderground v.1.15,2013-02-19 00:25:00,
2013-02-18 16:30:00,49.5,39.7,29.97,SSE,158,1.0,-999.0,69,0.00,,,0.00,Wunderground v.1.15,2013-02-19 00:30:00,
2013-02-18 16:35:00,49.0,40.0,29.97,South,180,1.0,-999.0,71,0.00,,,0.00,Wunderground v.1.15,2013-02-19 00:35:00,
2013-02-18 16:40:00,49.0,40.0,29.97,South,180,1.0,-999.0,71,0.00,,,0.00,Wunderground v.1.15,2013-02-19 00:40:00,
2013-02-18 16:45:00,48.3,40.0,29.97,SE,135,1.0,-999.0,73,0.00,,,0.00,Wunderground v.1.15,2013-02-19 00:45:00,
2013-02-18 16:50:00,48.3,40.0,29.97,SE,135,1.0,-999.0,73,0.00,,,0.00,Wunderground v.1.15,2013-02-19 00:50:00,
2013-02-18 16:55:00,47.5,40.0,29.97,SE,135,2.0,-999.0,75,0.00,,,0.00,Wunderground v.1.15,2013-02-19 00:55:00,
2013-02-18 17:00:00,47.5,40.0,29.97,SE,135,2.0,-999.0,75,0.00,,,0.00,Wunderground v.1.15,2013-02-19 01:00:00,
2013-02-18 17:05:00,46.9,39.7,29.97,SSE,158,2.0,-999.0,76,0.00,,,0.00,Wunderground v.1.15,2013-02-19 01:05:00,
2013-02-18 17:10:00,46.9,39.7,29.97,SSE,158,2.0,-999.0,76,0.00,,,0.00,Wunderground v.1.15,2013-02-19 01:10:00,
2013-02-18 17:15:00,46.2,39.4,29.98,ESE,113,2.0,-999.0,77,0.00,,,0.00,Wunderground v.1.15,2013-02-19 01:15:00,
2013-02-18 17:20:00,46.2,39.4,29.98,ESE,113,2.0,-999.0,77,0.00,,,0.00,Wunderground v.1.15,2013-02-19 01:20:00,
2013-02-18 17:25:00,45.2,38.7,29.98,WNW,293,1.0,-999.0,78,0.00,,,0.00,Wunderground v.1.15,2013-02-19 01:25:00,
2013-02-18 17:30:00,45.2,38.7,29.98,WNW,293,1.0,-999.0,78,0.00,,,0.00,Wunderground v.1.15,2013-02-19 01:30:00,
2013-02-18 17:45:00,43.3,37.2,29.99,NNE,18,0.0,1.0,79,0.00,,,0.00,Wunderground v.1.15,2013-02-19 01:45:00,
2013-02-18 17:50:00,42.8,37.1,29.99,ESE,111,1.0,1.0,80,0.00,,,0.00,Wunderground v.1.15,2013-02-19 01:50:00,
2013-02-18 18:00:00,42.2,36.8,29.99,East,82,1.0,1.0,81,0.00,,,0.00,Wunderground v.1.15,2013-02-19 02:00:00,
2013-02-18 18:10:00,41.7,36.6,30.00,SE,132,1.0,1.0,82,0.00,,,0.00,Wunderground v.1.15,2013-02-19 02:10:00,
2013-02-18 18:15:00,41.6,36.5,30.00,SE,125,1.0,1.0,82,0.00,,,0.00,Wunderground v.1.15,2013-02-19 02:15:00,
2013-02-18 18:20:00,41.5,36.4,30.00,SE,126,1.0,2.0,82,0.00,,,0.00,Wunderground v.1.15,2013-02-19 02:20:00,
2013-02-18 18:25:00,41.4,36.3,30.00,SE,146,1.0,2.0,82,0.00,,,0.00,Wunderground v.1.15,2013-02-19 02:25:00,
2013-02-18 18:30:00,41.3,36.2,30.00,SE,127,2.0,3.0,82,0.00,,,0.00,Wunderground v.1.15,2013-02-19 02:30:00,
2013-02-18 18:35:00,41.2,36.1,30.01,SSE,148,2.0,3.0,82,0.00,,,0.00,Wunderground v.1.15,2013-02-19 02:35:00,
2013-02-18 18:45:00,41.1,36.3,30.02,South,190,1.0,1.0,83,0.00,,,0.00,Wunderground v.1.15,2013-02-19 02:45:00,
2013-02-18 18:50:00,40.9,36.1,30.02,SE,136,1.0,1.0,83,0.00,,,0.00,Wunderground v.1.15,2013-02-19 02:50:00,
2013-02-18 19:00:00,40.7,35.9,30.02,SE,138,1.0,1.0,83,0.00,,,0.00,Wunderground v.1.15,2013-02-19 03:00:00,
2013-02-18 19:10:00,40.5,35.7,30.01,SE,128,1.0,1.0,83,0.00,,,0.00,Wunderground v.1.15,2013-02-19 03:10:00,
2013-02-18 19:15:00,40.5,35.7,30.01,SSE,150,1.0,2.0,83,0.00,,,0.00,Wunderground v.1.15,2013-02-19 03:15:00,
2013-02-18 19:25:00,40.4,35.6,30.02,SE,132,1.0,3.0,83,0.00,,,0.00,Wunderground v.1.15,2013-02-19 03:25:00,
2013-02-18 19:35:00,40.6,35.8,30.01,SE,129,2.0,2.0,83,0.00,,,0.00,Wunderground v.1.15,2013-02-19 03:35:00,
2013-02-18 19:45:00,40.3,35.2,30.01,SE,146,3.0,5.0,82,0.00,,,0.00,Wunderground v.1.15,2013-02-19 03:45:00,
2013-02-18 19:55:00,40.0,35.3,29.99,SSE,152,5.0,8.0,83,0.00,,,0.00,Wunderground v.1.15,2013-02-19 03:55:00,
2013-02-18 20:00:00,40.0,35.3,29.99,ESE,121,5.0,5.0,83,0.00,,,0.00,Wunderground v.1.15,2013-02-19 04:00:00,
2013-02-18 20:10:00,40.0,35.6,29.99,SE,133,4.0,5.0,84,0.00,,,0.00,Wunderground v.1.15,2013-02-19 04:10:00,
2013-02-18 20:15:00,40.0,35.6,29.99,SE,144,4.0,5.0,84,0.00,,,0.00,Wunderground v.1.15,2013-02-19 04:15:00,
2013-02-18 20:20:00,40.0,35.6,29.99,SE,131,4.0,4.0,84,0.00,,,0.00,Wunderground v.1.15,2013-02-19 04:20:00,
2013-02-18 20:30:00,40.1,35.7,30.00,ESE,120,3.0,3.0,84,0.00,,,0.00,Wunderground v.1.15,2013-02-19 04:30:00,
2013-02-18 20:35:00,40.0,35.3,29.99,SE,142,3.0,3.0,83,0.00,,,0.00,Wunderground v.1.15,2013-02-19 04:35:00,
2013-02-18 20:45:00,40.0,35.3,30.00,SSE,157,3.0,4.0,83,0.00,,,0.00,Wunderground v.1.15,2013-02-19 04:45:00,
2013-02-18 20:55:00,40.1,35.4,30.00,SE,136,2.0,4.0,83,0.00,,,0.00,Wunderground v.1.15,2013-02-19 04:55:00,
2013-02-18 21:00:00,40.1,35.4,30.00,SSE,164,3.0,4.0,83,0.00,,,0.00,Wunderground v.1.15,2013-02-19 05:00:00,
2013-02-18 21:10:00,39.9,34.9,30.00,SE,127,3.0,3.0,82,0.00,,,0.00,Wunderground v.1.15,2013-02-19 05:10:00,
2013-02-18 21:20:00,39.9,34.9,30.00,SE,138,2.0,2.0,82,0.00,,,0.00,Wunderground v.1.15,2013-02-19 05:20:00,
2013-02-18 21:25:00,39.8,34.8,30.00,South,191,3.0,3.0,82,0.00,,,0.00,Wunderground v.1.15,2013-02-19 05:25:00,
2013-02-18 21:30:00,39.6,34.6,30.00,SE,132,3.0,3.0,82,0.00,,,0.00,Wunderground v.1.15,2013-02-19 05:30:00,
2013-02-18 21:35:00,39.4,34.4,30.00,SSE,160,3.0,3.0,82,0.00,,,0.00,Wunderground v.1.15,2013-02-19 05:35:00,
2013-02-18 21:40:00,39.2,34.5,30.00,ESE,113,3.0,3.0,83,0.00,,,0.00,Wunderground v.1.15,2013-02-19 05:40:00,
2013-02-18 21:45:00,39.0,34.3,30.00,ESE,113,3.0,3.0,83,0.00,,,0.00,Wunderground v.1.15,2013-02-19 05:45:00,
2013-02-18 21:50:00,38.8,34.1,30.00,ESE,123,3.0,5.0,83,0.00,,,0.00,Wunderground v.1.15,2013-02-19 05:50:00,
2013-02-18 22:00:00,38.5,34.1,30.00,SE,134,3.0,3.0,84,0.00,,,0.00,Wunderground v.1.15,2013-02-19 06:00:00,
2013-02-18 22:10:00,38.3,33.9,30.00,SSE,148,5.0,5.0,84,0.00,,,0.00,Wunderground v.1.15,2013-02-19 06:10:00,
2013-02-18 22:15:00,38.2,33.8,30.00,SE,139,5.0,5.0,84,0.00,,,0.00,Wunderground v.1.15,2013-02-19 06:15:00,
2013-02-18 22:25:00,38.1,33.7,30.00,SSE,162,5.0,5.0,84,0.00,,,0.00,Wunderground v.1.15,2013-02-19 06:25:00,
2013-02-18 22:35:00,38.0,33.6,30.00,SE,136,3.0,11.0,84,0.00,,,0.00,Wunderground v.1.15,2013-02-19 06:35:00,
2013-02-18 22:40:00,38.1,33.7,30.00,SSE,159,3.0,3.0,84,0.00,,,0.00,Wunderground v.1.15,2013-02-19 06:40:00,
2013-02-18 22:50:00,38.1,33.4,30.00,SE,141,2.0,4.0,83,0.00,,,0.00,Wunderground v.1.15,2013-02-19 06:50:00,
2013-02-18 23:00:00,38.0,33.3,29.99,SE,141,4.0,4.0,83,0.00,,,0.00,Wunderground v.1.15,2013-02-19 07:00:00,
2013-02-18 23:05:00,37.9,32.9,29.99,SSE,158,3.0,-999.0,82,0.00,,,0.00,Wunderground v.1.15,2013-02-19 07:05:00,
2013-02-18 23:10:00,37.9,32.9,29.99,SE,139,3.0,3.0,82,0.00,,,0.00,Wunderground v.1.15,2013-02-19 07:10:00,
2013-02-18 23:15:00,37.8,33.1,29.99,SSE,150,4.0,4.0,83,0.00,,,0.00,Wunderground v.1.15,2013-02-19 07:15:00,
2013-02-18 23:20:00,37.7,32.7,29.99,SSE,163,4.0,4.0,82,0.00,,,0.00,Wunderground v.1.15,2013-02-19 07:20:00,
2013-02-18 23:25:00,37.6,32.6,29.98,SSE,158,3.0,-999.0,82,0.00,,,0.00,Wunderground v.1.15,2013-02-19 07:25:00,
2013-02-18 23:30:00,37.6,32.6,29.98,SSE,152,3.0,4.0,82,0.00,,,0.00,Wunderground v.1.15,2013-02-19 07:30:00,
2013-02-18 23:35:00,37.6,32.6,29.99,SSE,158,3.0,-999.0,82,0.00,,,0.00,Wunderground v.1.15,2013-02-19 07:35:00,
2013-02-18 23:40:00,37.5,32.5,29.99,SSW,193,3.0,7.0,82,0.00,,,0.00,Wunderground v.1.15,2013-02-19 07:40:00,
2013-02-18 23:45:00,37.4,32.7,29.99,SE,138,3.0,7.0,83,0.00,,,0.00,Wunderground v.1.15,2013-02-19 07:45:00,
2013-02-18 23:50:00,37.3,32.9,29.99,SE,135,4.0,-999.0,84,0.00,,,0.00,Wunderground v.1.15,2013-02-19 07:50:00,
2013-02-18 23:55:00,37.2,32.8,29.99,SSE,158,3.0,-999.0,84,0.00,,,0.00,Wunderground v.1.15,2013-02-19 07:55:00,